createdAt,value
2017-06-27T00:00:16.668Z,8.40
2017-06-27T00:21:22.340Z,7.87
2017-06-27T00:42:28.057Z,8.13
2017-06-27T01:03:33.527Z,7.97
2017-06-27T01:24:38.998Z,7.80
2017-06-27T01:45:44.681Z,7.93
2017-06-27T02:06:50.511Z,9.30
2017-06-27T02:27:57.160Z,7.60
2017-06-27T02:49:03.716Z,7.90
2017-06-27T03:10:10.563Z,9.70
2017-06-27T03:31:17.472Z,10.17
2017-06-27T03:52:24.489Z,9.40
2017-06-27T04:13:31.599Z,9.57
2017-06-27T04:34:38.301Z,10.40
2017-06-27T04:55:44.499Z,10.53
2017-06-27T05:19:58.326Z,8.90
2017-06-27T05:41:04.051Z,10.27
2017-06-27T06:02:10.014Z,8.90
2017-06-27T06:23:16.585Z,9.10
2017-06-27T06:44:23.204Z,9.00
2017-06-27T07:05:30.159Z,8.87
2017-06-27T07:26:36.242Z,10.00
2017-06-27T07:47:43.000Z,10.87
2017-06-27T08:08:48.537Z,11.17
2017-06-27T08:29:54.942Z,10.70
2017-06-27T08:51:01.830Z,9.43
2017-06-27T09:12:08.025Z,9.40
2017-06-27T09:33:13.847Z,9.80
2017-06-27T09:54:19.883Z,9.20
2017-06-27T10:15:25.622Z,8.70
2017-06-27T10:36:32.140Z,6.23
2017-06-27T10:57:39.621Z,6.13
2017-06-27T11:18:47.240Z,6.20
2017-06-27T11:39:53.492Z,5.80
2017-06-27T12:01:05.866Z,4.60
2017-06-27T12:22:11.592Z,4.27
2017-06-27T12:43:17.407Z,4.53
2017-06-27T13:04:23.804Z,5.40
2017-06-27T13:25:30.320Z,5.63
2017-06-27T13:46:35.704Z,5.53
2017-06-27T14:07:42.811Z,5.60
2017-06-27T14:28:49.752Z,5.70
2017-06-27T14:49:56.522Z,6.17
2017-06-27T15:11:03.177Z,4.80
2017-06-27T15:32:09.384Z,2.40
2017-06-27T15:53:15.568Z,1.90
2017-06-27T16:14:21.438Z,2.90
2017-06-27T16:35:28.124Z,3.37
2017-06-27T16:56:35.185Z,4.10
2017-06-27T17:21:12.378Z,4.30
2017-06-27T17:42:19.266Z,4.37
2017-06-27T18:03:25.743Z,4.47
2017-06-27T18:24:31.689Z,5.03
2017-06-27T18:45:37.294Z,4.37
2017-06-27T19:06:43.217Z,4.37
2017-06-27T19:27:49.919Z,5.13
2017-06-27T19:48:55.677Z,6.23
2017-06-27T20:10:02.292Z,6.80
2017-06-27T20:31:23.794Z,7.13
2017-06-27T20:52:30.935Z,6.60
2017-06-27T21:13:37.856Z,7.23
2017-06-27T21:34:44.164Z,6.70
2017-06-27T21:55:50.538Z,6.03
2017-06-27T22:16:56.131Z,7.07
2017-06-27T22:38:02.736Z,7.30
2017-06-27T22:59:08.786Z,8.00
2017-06-27T23:20:14.922Z,7.87
2017-06-27T23:41:20.827Z,7.20
